sensor_id;sensor_type;location;lat;lon;timestamp;P1;durP1;ratioP1;P2;durP2;ratioP2
20365;SDS011;10341;49.894;8.822;2023-12-28T00:00:46;5.22;;;2.45;;
20365;SDS011;10341;49.894;8.822;2023-12-28T00:06:06;4.65;;;2.78;;
20365;SDS011;10341;49.894;8.822;2023-12-28T00:11:26;5.70;;;2.10;;
20365;SDS011;10341;49.894;8.822;2023-12-28T00:16:46;4.85;;;2.65;;
20365;SDS011;10341;49.894;8.822;2023-12-28T00:22:05;3.67;;;2.47;;
20365;SDS011;10341;49.894;8.822;2023-12-28T00:27:24;5.18;;;3.13;;
20365;SDS011;10341;49.894;8.822;2023-12-28T00:32:43;4.75;;;2.95;;
20365;SDS011;10341;49.894;8.822;2023-12-28T00:38:04;6.05;;;3.05;;
20365;SDS011;10341;49.894;8.822;2023-12-28T00:43:23;6.07;;;3.20;;
20365;SDS011;10341;49.894;8.822;2023-12-28T00:48:43;3.70;;;2.83;;
20365;SDS011;10341;49.894;8.822;2023-12-28T00:54:02;4.77;;;2.60;;
20365;SDS011;10341;49.894;8.822;2023-12-28T00:59:21;5.60;;;2.78;;
20365;SDS011;10341;49.894;8.822;2023-12-28T01:04:41;4.60;;;2.90;;
20365;SDS011;10341;49.894;8.822;2023-12-28T01:10:00;3.47;;;2.40;;
20365;SDS011;10341;49.894;8.822;2023-12-28T01:15:19;4.37;;;2.50;;
20365;SDS011;10341;49.894;8.822;2023-12-28T01:20:39;4.70;;;2.60;;
20365;SDS011;10341;49.894;8.822;2023-12-28T01:25:59;3.63;;;2.30;;
20365;SDS011;10341;49.894;8.822;2023-12-28T01:31:19;3.28;;;1.92;;
20365;SDS011;10341;49.894;8.822;2023-12-28T01:36:38;6.60;;;2.20;;
20365;SDS011;10341;49.894;8.822;2023-12-28T01:42:02;3.63;;;2.20;;
20365;SDS011;10341;49.894;8.822;2023-12-28T01:47:24;3.95;;;2.28;;
20365;SDS011;10341;49.894;8.822;2023-12-28T01:52:45;4.22;;;1.90;;
20365;SDS011;10341;49.894;8.822;2023-12-28T01:58:05;4.13;;;2.13;;
20365;SDS011;10341;49.894;8.822;2023-12-28T02:03:24;3.03;;;2.00;;
20365;SDS011;10341;49.894;8.822;2023-12-28T02:08:44;3.72;;;2.20;;
20365;SDS011;10341;49.894;8.822;2023-12-28T02:14:04;3.33;;;2.22;;
20365;SDS011;10341;49.894;8.822;2023-12-28T02:25:08;2.95;;;2.05;;
20365;SDS011;10341;49.894;8.822;2023-12-28T02:30:28;3.58;;;2.00;;
20365;SDS011;10341;49.894;8.822;2023-12-28T02:35:53;3.78;;;2.00;;
20365;SDS011;10341;49.894;8.822;2023-12-28T02:41:16;3.70;;;1.98;;
20365;SDS011;10341;49.894;8.822;2023-12-28T02:51:57;3.58;;;2.25;;
20365;SDS011;10341;49.894;8.822;2023-12-28T02:57:17;4.43;;;2.35;;
20365;SDS011;10341;49.894;8.822;2023-12-28T03:02:37;3.53;;;2.53;;
20365;SDS011;10341;49.894;8.822;2023-12-28T03:07:57;4.85;;;2.42;;
20365;SDS011;10341;49.894;8.822;2023-12-28T03:13:17;3.63;;;2.33;;
20365;SDS011;10341;49.894;8.822;2023-12-28T03:18:38;4.00;;;2.53;;
20365;SDS011;10341;49.894;8.822;2023-12-28T03:23:57;4.93;;;2.27;;
20365;SDS011;10341;49.894;8.822;2023-12-28T03:29:17;3.58;;;2.28;;
20365;SDS011;10341;49.894;8.822;2023-12-28T03:34:36;5.00;;;2.47;;
20365;SDS011;10341;49.894;8.822;2023-12-28T03:39:56;3.70;;;2.40;;
20365;SDS011;10341;49.894;8.822;2023-12-28T03:45:16;4.38;;;2.38;;
20365;SDS011;10341;49.894;8.822;2023-12-28T03:50:36;4.05;;;2.47;;
20365;SDS011;10341;49.894;8.822;2023-12-28T03:55:55;3.90;;;2.03;;
20365;SDS011;10341;49.894;8.822;2023-12-28T04:01:19;3.55;;;2.15;;
20365;SDS011;10341;49.894;8.822;2023-12-28T04:06:41;4.30;;;2.35;;
20365;SDS011;10341;49.894;8.822;2023-12-28T04:12:02;3.20;;;2.15;;
20365;SDS011;10341;49.894;8.822;2023-12-28T04:17:22;4.07;;;2.40;;
20365;SDS011;10341;49.894;8.822;2023-12-28T04:22:42;3.95;;;2.25;;
20365;SDS011;10341;49.894;8.822;2023-12-28T04:28:02;3.05;;;2.10;;
20365;SDS011;10341;49.894;8.822;2023-12-28T04:33:21;4.32;;;2.13;;
20365;SDS011;10341;49.894;8.822;2023-12-28T04:38:41;2.78;;;2.17;;
20365;SDS011;10341;49.894;8.822;2023-12-28T04:44:01;4.10;;;1.73;;
20365;SDS011;10341;49.894;8.822;2023-12-28T04:49:20;3.83;;;2.00;;
20365;SDS011;10341;49.894;8.822;2023-12-28T04:54:40;4.07;;;2.17;;
20365;SDS011;10341;49.894;8.822;2023-12-28T04:59:59;4.13;;;1.92;;
20365;SDS011;10341;49.894;8.822;2023-12-28T05:05:19;2.35;;;1.98;;
20365;SDS011;10341;49.894;8.822;2023-12-28T05:10:40;3.15;;;2.33;;
20365;SDS011;10341;49.894;8.822;2023-12-28T05:16:00;3.60;;;1.73;;
20365;SDS011;10341;49.894;8.822;2023-12-28T05:21:20;3.10;;;2.00;;
20365;SDS011;10341;49.894;8.822;2023-12-28T05:26:39;3.60;;;2.00;;
20365;SDS011;10341;49.894;8.822;2023-12-28T05:31:58;6.20;;;2.60;;
20365;SDS011;10341;49.894;8.822;2023-12-28T05:37:18;4.13;;;2.00;;
20365;SDS011;10341;49.894;8.822;2023-12-28T05:42:37;4.22;;;2.22;;
20365;SDS011;10341;49.894;8.822;2023-12-28T05:47:57;4.05;;;2.10;;
20365;SDS011;10341;49.894;8.822;2023-12-28T05:53:16;5.43;;;2.27;;
20365;SDS011;10341;49.894;8.822;2023-12-28T05:58:35;2.35;;;1.70;;
20365;SDS011;10341;49.894;8.822;2023-12-28T06:03:57;2.63;;;1.80;;
20365;SDS011;10341;49.894;8.822;2023-12-28T06:09:17;2.97;;;1.90;;
20365;SDS011;10341;49.894;8.822;2023-12-28T06:14:36;4.47;;;2.10;;
20365;SDS011;10341;49.894;8.822;2023-12-28T06:19:55;3.30;;;1.80;;
20365;SDS011;10341;49.894;8.822;2023-12-28T06:25:15;3.53;;;2.00;;
20365;SDS011;10341;49.894;8.822;2023-12-28T06:30:34;3.30;;;1.85;;
20365;SDS011;10341;49.894;8.822;2023-12-28T06:35:54;2.38;;;1.90;;
20365;SDS011;10341;49.894;8.822;2023-12-28T06:41:13;3.95;;;2.05;;
20365;SDS011;10341;49.894;8.822;2023-12-28T06:46:33;5.47;;;1.92;;
20365;SDS011;10341;49.894;8.822;2023-12-28T06:51:53;3.95;;;2.20;;
20365;SDS011;10341;49.894;8.822;2023-12-28T06:57:12;2.73;;;1.93;;
20365;SDS011;10341;49.894;8.822;2023-12-28T07:02:31;3.17;;;2.03;;
20365;SDS011;10341;49.894;8.822;2023-12-28T07:07:50;2.63;;;1.83;;
20365;SDS011;10341;49.894;8.822;2023-12-28T07:13:10;3.03;;;2.10;;
20365;SDS011;10341;49.894;8.822;2023-12-28T07:18:29;3.38;;;1.95;;
20365;SDS011;10341;49.894;8.822;2023-12-28T07:23:48;5.30;;;2.00;;
20365;SDS011;10341;49.894;8.822;2023-12-28T07:29:08;6.93;;;2.00;;
20365;SDS011;10341;49.894;8.822;2023-12-28T07:34:27;3.47;;;2.10;;
20365;SDS011;10341;49.894;8.822;2023-12-28T07:39:47;2.45;;;1.75;;
20365;SDS011;10341;49.894;8.822;2023-12-28T07:45:06;2.53;;;1.50;;
20365;SDS011;10341;49.894;8.822;2023-12-28T07:50:26;1.80;;;1.58;;
20365;SDS011;10341;49.894;8.822;2023-12-28T07:55:45;2.30;;;1.70;;
20365;SDS011;10341;49.894;8.822;2023-12-28T08:01:09;2.17;;;1.50;;
20365;SDS011;10341;49.894;8.822;2023-12-28T08:06:29;3.13;;;1.52;;
20365;SDS011;10341;49.894;8.822;2023-12-28T08:11:51;2.55;;;1.67;;
20365;SDS011;10341;49.894;8.822;2023-12-28T08:17:11;4.03;;;1.85;;
20365;SDS011;10341;49.894;8.822;2023-12-28T08:22:30;2.30;;;1.70;;
20365;SDS011;10341;49.894;8.822;2023-12-28T08:27:49;3.88;;;1.90;;
20365;SDS011;10341;49.894;8.822;2023-12-28T08:33:09;2.92;;;1.80;;
20365;SDS011;10341;49.894;8.822;2023-12-28T08:38:29;4.00;;;1.60;;
20365;SDS011;10341;49.894;8.822;2023-12-28T08:43:48;3.10;;;1.90;;
20365;SDS011;10341;49.894;8.822;2023-12-28T08:49:07;2.30;;;1.80;;
20365;SDS011;10341;49.894;8.822;2023-12-28T08:54:27;4.75;;;1.60;;
20365;SDS011;10341;49.894;8.822;2023-12-28T08:59:47;2.03;;;1.75;;
20365;SDS011;10341;49.894;8.822;2023-12-28T09:05:06;3.08;;;1.73;;
20365;SDS011;10341;49.894;8.822;2023-12-28T09:10:28;3.63;;;1.88;;
20365;SDS011;10341;49.894;8.822;2023-12-28T09:15:48;3.75;;;1.55;;
20365;SDS011;10341;49.894;8.822;2023-12-28T09:21:09;4.28;;;1.80;;
20365;SDS011;10341;49.894;8.822;2023-12-28T09:26:29;2.20;;;1.60;;
20365;SDS011;10341;49.894;8.822;2023-12-28T09:31:49;2.70;;;1.58;;
20365;SDS011;10341;49.894;8.822;2023-12-28T09:37:08;2.33;;;1.73;;
20365;SDS011;10341;49.894;8.822;2023-12-28T09:42:29;2.78;;;1.67;;
20365;SDS011;10341;49.894;8.822;2023-12-28T09:48:03;2.17;;;1.73;;
20365;SDS011;10341;49.894;8.822;2023-12-28T09:53:23;3.65;;;1.50;;
20365;SDS011;10341;49.894;8.822;2023-12-28T09:58:44;2.38;;;1.60;;
20365;SDS011;10341;49.894;8.822;2023-12-28T10:04:05;1.85;;;1.55;;
20365;SDS011;10341;49.894;8.822;2023-12-28T10:09:27;2.47;;;1.60;;
20365;SDS011;10341;49.894;8.822;2023-12-28T10:14:46;2.40;;;1.65;;
20365;SDS011;10341;49.894;8.822;2023-12-28T10:20:06;5.45;;;1.50;;
20365;SDS011;10341;49.894;8.822;2023-12-28T10:25:28;5.13;;;1.70;;
20365;SDS011;10341;49.894;8.822;2023-12-28T10:30:49;2.05;;;1.50;;
20365;SDS011;10341;49.894;8.822;2023-12-28T10:36:13;3.30;;;1.60;;
20365;SDS011;10341;49.894;8.822;2023-12-28T10:41:35;3.67;;;1.75;;
20365;SDS011;10341;49.894;8.822;2023-12-28T10:46:55;4.40;;;1.65;;
20365;SDS011;10341;49.894;8.822;2023-12-28T10:52:19;2.95;;;1.88;;
20365;SDS011;10341;49.894;8.822;2023-12-28T10:57:45;3.10;;;1.58;;
20365;SDS011;10341;49.894;8.822;2023-12-28T11:03:18;4.22;;;2.05;;
20365;SDS011;10341;49.894;8.822;2023-12-28T11:08:45;2.13;;;1.35;;
20365;SDS011;10341;49.894;8.822;2023-12-28T11:14:08;3.55;;;1.83;;
20365;SDS011;10341;49.894;8.822;2023-12-28T11:19:34;2.50;;;1.73;;
20365;SDS011;10341;49.894;8.822;2023-12-28T11:24:55;3.33;;;1.65;;
20365;SDS011;10341;49.894;8.822;2023-12-28T11:30:15;3.90;;;1.88;;
20365;SDS011;10341;49.894;8.822;2023-12-28T11:35:35;5.47;;;2.05;;
20365;SDS011;10341;49.894;8.822;2023-12-28T11:40:55;2.83;;;1.63;;
20365;SDS011;10341;49.894;8.822;2023-12-28T11:46:16;3.92;;;1.70;;
20365;SDS011;10341;49.894;8.822;2023-12-28T11:51:37;3.83;;;2.00;;
20365;SDS011;10341;49.894;8.822;2023-12-28T11:56:58;5.18;;;1.98;;
20365;SDS011;10341;49.894;8.822;2023-12-28T12:02:17;2.45;;;1.60;;
20365;SDS011;10341;49.894;8.822;2023-12-28T12:07:38;2.33;;;1.50;;
20365;SDS011;10341;49.894;8.822;2023-12-28T12:18:17;3.78;;;1.38;;
20365;SDS011;10341;49.894;8.822;2023-12-28T12:23:37;5.15;;;2.05;;
20365;SDS011;10341;49.894;8.822;2023-12-28T12:28:57;2.95;;;1.50;;
20365;SDS011;10341;49.894;8.822;2023-12-28T12:34:16;4.95;;;1.90;;
20365;SDS011;10341;49.894;8.822;2023-12-28T12:39:36;5.35;;;2.00;;
20365;SDS011;10341;49.894;8.822;2023-12-28T12:44:56;3.85;;;1.85;;
20365;SDS011;10341;49.894;8.822;2023-12-28T12:55:36;5.32;;;1.83;;
20365;SDS011;10341;49.894;8.822;2023-12-28T13:00:58;3.60;;;2.15;;
20365;SDS011;10341;49.894;8.822;2023-12-28T13:06:17;3.28;;;2.20;;
20365;SDS011;10341;49.894;8.822;2023-12-28T13:11:37;5.38;;;2.00;;
20365;SDS011;10341;49.894;8.822;2023-12-28T13:16:57;2.95;;;2.08;;
20365;SDS011;10341;49.894;8.822;2023-12-28T13:22:17;4.05;;;2.15;;
20365;SDS011;10341;49.894;8.822;2023-12-28T13:27:36;3.90;;;2.38;;
20365;SDS011;10341;49.894;8.822;2023-12-28T13:32:56;3.38;;;1.90;;
20365;SDS011;10341;49.894;8.822;2023-12-28T13:38:15;2.38;;;1.90;;
20365;SDS011;10341;49.894;8.822;2023-12-28T13:43:35;3.10;;;2.17;;
20365;SDS011;10341;49.894;8.822;2023-12-28T13:48:55;3.63;;;1.90;;
20365;SDS011;10341;49.894;8.822;2023-12-28T13:54:15;2.60;;;2.08;;
20365;SDS011;10341;49.894;8.822;2023-12-28T13:59:35;2.95;;;2.17;;
20365;SDS011;10341;49.894;8.822;2023-12-28T14:04:55;2.00;;;1.77;;
20365;SDS011;10341;49.894;8.822;2023-12-28T14:10:15;2.95;;;1.85;;
20365;SDS011;10341;49.894;8.822;2023-12-28T14:15:35;2.78;;;1.50;;
20365;SDS011;10341;49.894;8.822;2023-12-28T14:20:54;1.88;;;1.42;;
20365;SDS011;10341;49.894;8.822;2023-12-28T14:26:14;1.50;;;1.35;;
20365;SDS011;10341;49.894;8.822;2023-12-28T14:31:35;1.48;;;1.33;;
20365;SDS011;10341;49.894;8.822;2023-12-28T14:36:54;1.42;;;1.30;;
20365;SDS011;10341;49.894;8.822;2023-12-28T14:42:14;1.92;;;1.40;;
20365;SDS011;10341;49.894;8.822;2023-12-28T14:47:34;3.60;;;1.40;;
20365;SDS011;10341;49.894;8.822;2023-12-28T14:52:54;1.90;;;1.40;;
20365;SDS011;10341;49.894;8.822;2023-12-28T14:58:14;2.88;;;1.55;;
20365;SDS011;10341;49.894;8.822;2023-12-28T15:08:53;3.13;;;1.70;;
20365;SDS011;10341;49.894;8.822;2023-12-28T15:14:13;2.97;;;1.75;;
20365;SDS011;10341;49.894;8.822;2023-12-28T15:19:33;2.22;;;1.75;;
20365;SDS011;10341;49.894;8.822;2023-12-28T15:24:54;2.78;;;1.90;;
20365;SDS011;10341;49.894;8.822;2023-12-28T15:30:13;3.63;;;1.80;;
20365;SDS011;10341;49.894;8.822;2023-12-28T15:35:33;2.78;;;1.88;;
20365;SDS011;10341;49.894;8.822;2023-12-28T15:40:56;4.57;;;2.13;;
20365;SDS011;10341;49.894;8.822;2023-12-28T15:46:16;3.60;;;2.33;;
20365;SDS011;10341;49.894;8.822;2023-12-28T15:51:36;2.63;;;2.08;;
20365;SDS011;10341;49.894;8.822;2023-12-28T15:56:55;2.85;;;1.95;;
20365;SDS011;10341;49.894;8.822;2023-12-28T16:02:15;2.63;;;1.90;;
20365;SDS011;10341;49.894;8.822;2023-12-28T16:07:34;2.40;;;1.75;;
20365;SDS011;10341;49.894;8.822;2023-12-28T16:12:54;3.45;;;2.08;;
20365;SDS011;10341;49.894;8.822;2023-12-28T16:18:14;2.90;;;1.92;;
20365;SDS011;10341;49.894;8.822;2023-12-28T16:23:33;2.60;;;1.85;;
20365;SDS011;10341;49.894;8.822;2023-12-28T16:28:53;6.50;;;3.22;;
20365;SDS011;10341;49.894;8.822;2023-12-28T16:34:12;4.18;;;2.35;;
20365;SDS011;10341;49.894;8.822;2023-12-28T16:39:32;4.97;;;2.55;;
20365;SDS011;10341;49.894;8.822;2023-12-28T16:44:52;3.28;;;2.50;;
20365;SDS011;10341;49.894;8.822;2023-12-28T16:50:12;5.43;;;2.55;;
20365;SDS011;10341;49.894;8.822;2023-12-28T16:55:31;4.25;;;2.95;;
20365;SDS011;10341;49.894;8.822;2023-12-28T17:00:52;4.15;;;3.65;;
20365;SDS011;10341;49.894;8.822;2023-12-28T17:06:13;4.50;;;2.72;;
20365;SDS011;10341;49.894;8.822;2023-12-28T17:11:33;4.32;;;3.05;;
20365;SDS011;10341;49.894;8.822;2023-12-28T17:16:52;4.07;;;3.15;;
20365;SDS011;10341;49.894;8.822;2023-12-28T17:22:13;5.68;;;3.00;;
20365;SDS011;10341;49.894;8.822;2023-12-28T17:27:33;3.88;;;2.80;;
20365;SDS011;10341;49.894;8.822;2023-12-28T17:32:58;4.35;;;2.78;;
20365;SDS011;10341;49.894;8.822;2023-12-28T17:38:18;3.92;;;2.85;;
20365;SDS011;10341;49.894;8.822;2023-12-28T17:43:39;4.07;;;2.83;;
20365;SDS011;10341;49.894;8.822;2023-12-28T17:49:03;5.13;;;2.90;;
20365;SDS011;10341;49.894;8.822;2023-12-28T17:54:25;6.07;;;2.95;;
20365;SDS011;10341;49.894;8.822;2023-12-28T17:59:45;4.43;;;3.00;;
20365;SDS011;10341;49.894;8.822;2023-12-28T18:05:04;7.28;;;3.47;;
20365;SDS011;10341;49.894;8.822;2023-12-28T18:10:24;4.95;;;3.42;;
20365;SDS011;10341;49.894;8.822;2023-12-28T18:15:44;4.53;;;3.35;;
20365;SDS011;10341;49.894;8.822;2023-12-28T18:21:04;5.00;;;2.97;;
20365;SDS011;10341;49.894;8.822;2023-12-28T18:26:23;5.88;;;3.60;;
20365;SDS011;10341;49.894;8.822;2023-12-28T18:31:43;7.93;;;3.95;;
20365;SDS011;10341;49.894;8.822;2023-12-28T18:37:03;4.05;;;3.28;;
20365;SDS011;10341;49.894;8.822;2023-12-28T18:42:22;6.50;;;3.78;;
20365;SDS011;10341;49.894;8.822;2023-12-28T18:53:02;4.57;;;3.53;;
20365;SDS011;10341;49.894;8.822;2023-12-28T18:58:23;5.15;;;3.58;;
20365;SDS011;10341;49.894;8.822;2023-12-28T19:09:03;5.53;;;3.42;;
20365;SDS011;10341;49.894;8.822;2023-12-28T19:14:24;5.43;;;3.08;;
20365;SDS011;10341;49.894;8.822;2023-12-28T19:19:43;3.85;;;2.97;;
20365;SDS011;10341;49.894;8.822;2023-12-28T19:30:23;4.03;;;2.35;;
20365;SDS011;10341;49.894;8.822;2023-12-28T19:41:03;5.70;;;2.70;;
20365;SDS011;10341;49.894;8.822;2023-12-28T19:46:23;4.55;;;2.80;;
20365;SDS011;10341;49.894;8.822;2023-12-28T19:57:03;3.80;;;2.42;;
20365;SDS011;10341;49.894;8.822;2023-12-28T20:02:22;4.57;;;2.83;;
20365;SDS011;10341;49.894;8.822;2023-12-28T20:07:44;3.47;;;2.60;;
20365;SDS011;10341;49.894;8.822;2023-12-28T20:13:04;3.85;;;2.72;;
20365;SDS011;10341;49.894;8.822;2023-12-28T20:23:43;4.53;;;2.60;;
20365;SDS011;10341;49.894;8.822;2023-12-28T20:34:22;2.20;;;1.60;;
20365;SDS011;10341;49.894;8.822;2023-12-28T20:45:02;2.47;;;1.35;;
20365;SDS011;10341;49.894;8.822;2023-12-28T20:50:23;2.65;;;1.20;;
20365;SDS011;10341;49.894;8.822;2023-12-28T20:55:42;1.23;;;0.95;;
20365;SDS011;10341;49.894;8.822;2023-12-28T21:01:02;1.98;;;1.25;;
20365;SDS011;10341;49.894;8.822;2023-12-28T21:06:22;1.42;;;1.20;;
20365;SDS011;10341;49.894;8.822;2023-12-28T21:11:41;2.17;;;1.50;;
20365;SDS011;10341;49.894;8.822;2023-12-28T21:17:01;3.90;;;1.50;;
20365;SDS011;10341;49.894;8.822;2023-12-28T21:22:20;1.90;;;1.60;;
20365;SDS011;10341;49.894;8.822;2023-12-28T21:33:00;2.90;;;1.65;;
20365;SDS011;10341;49.894;8.822;2023-12-28T21:38:19;1.58;;;1.38;;
20365;SDS011;10341;49.894;8.822;2023-12-28T21:43:39;1.90;;;1.58;;
20365;SDS011;10341;49.894;8.822;2023-12-28T21:48:58;3.53;;;2.03;;
20365;SDS011;10341;49.894;8.822;2023-12-28T21:54:17;4.37;;;2.20;;
20365;SDS011;10341;49.894;8.822;2023-12-28T21:59:38;3.80;;;2.10;;
20365;SDS011;10341;49.894;8.822;2023-12-28T22:04:57;3.17;;;2.30;;
20365;SDS011;10341;49.894;8.822;2023-12-28T22:10:17;4.45;;;2.55;;
20365;SDS011;10341;49.894;8.822;2023-12-28T22:15:36;4.93;;;2.65;;
20365;SDS011;10341;49.894;8.822;2023-12-28T22:20:56;5.15;;;2.30;;
20365;SDS011;10341;49.894;8.822;2023-12-28T22:26:15;3.47;;;2.50;;
20365;SDS011;10341;49.894;8.822;2023-12-28T22:31:35;4.20;;;2.47;;
20365;SDS011;10341;49.894;8.822;2023-12-28T22:36:54;6.95;;;2.53;;
20365;SDS011;10341;49.894;8.822;2023-12-28T22:42:14;5.38;;;2.40;;
20365;SDS011;10341;49.894;8.822;2023-12-28T22:47:35;3.72;;;2.25;;
20365;SDS011;10341;49.894;8.822;2023-12-28T22:52:54;4.28;;;2.30;;
20365;SDS011;10341;49.894;8.822;2023-12-28T22:58:14;5.28;;;2.47;;
20365;SDS011;10341;49.894;8.822;2023-12-28T23:03:33;5.55;;;2.42;;
20365;SDS011;10341;49.894;8.822;2023-12-28T23:08:54;2.80;;;2.40;;
20365;SDS011;10341;49.894;8.822;2023-12-28T23:14:14;3.63;;;2.40;;
20365;SDS011;10341;49.894;8.822;2023-12-28T23:19:33;4.43;;;2.92;;
20365;SDS011;10341;49.894;8.822;2023-12-28T23:24:52;3.40;;;2.47;;
20365;SDS011;10341;49.894;8.822;2023-12-28T23:30:12;4.50;;;2.53;;
20365;SDS011;10341;49.894;8.822;2023-12-28T23:35:32;4.68;;;2.90;;
20365;SDS011;10341;49.894;8.822;2023-12-28T23:40:52;4.50;;;2.40;;
20365;SDS011;10341;49.894;8.822;2023-12-28T23:46:12;4.70;;;2.80;;
20365;SDS011;10341;49.894;8.822;2023-12-28T23:51:31;3.67;;;2.42;;
20365;SDS011;10341;49.894;8.822;2023-12-28T23:56:51;5.00;;;2.90;;
